Terminal Aerodrome Forecast
Issued by NWS Shreveport, LA

Home | Current Version | Previous Version | Text Only | Print | Product List | Glossary On
Versions: 1 2 3 4 5 6 7 8 9 10 11 12 13 14 15 16 17 18 19 20
337
FTUS44 KSHV 300256 AAD
TAFSHV
TAF AMD
KSHV 300256Z 3003/3024 14012KT P6SM BKN007 OVC020
     FM300400 16012KT 3SM -TSRA BKN007 OVC020CB
      TEMPO 3004/3007 VRB25G50KT 1SM +TSRA BR OVC020CB
     FM300800 24010KT P6SM VCSH OVC060
     FM301600 25012G18KT P6SM SKC
      TEMPO 3018/3022 25015G25KT=

USA.gov is the U.S. government's official web portal to all federal, state and local government web resources and services.